Time;durP1;ratioP1;P1;durP2;ratioP2;P2;SDS_P1;SDS_P2;PMS_P1;PMS_P2;Temp;Humidity;BMP_temperature;BMP_pressure;BME280_temperature;BME280_humidity;BME280_pressure;Samples;Min_cycle;Max_cycle;Signal;HPM_P1;HPM_P2
2022/04/03 00:00:06;;;;;;;10.20;5.50;;;0.70;99.90;;;;;;5031653;28;20476;-73
2022/04/03 00:02:33;;;;;;;12.00;5.80;;;0.70;99.90;;;;;;5030441;28;20472;-73
2022/04/03 00:04:59;;;;;;;13.27;6.13;;;0.70;99.90;;;;;;5032135;28;20453;-72
2022/04/03 00:07:27;;;;;;;11.17;5.80;;;0.70;99.90;;;;;;5031673;28;20485;-72
2022/04/03 00:09:54;;;;;;;8.33;5.50;;;0.70;99.90;;;;;;5031371;28;20499;-73
2022/04/03 00:12:21;;;;;;;7.90;5.10;;;0.60;99.90;;;;;;5031441;28;20454;-74
2022/04/03 00:14:47;;;;;;;7.77;5.53;;;0.70;99.90;;;;;;5031357;28;20926;-73
2022/04/03 00:17:14;;;;;;;13.53;6.00;;;0.60;99.90;;;;;;5031668;28;20519;-73
2022/04/03 00:19:41;;;;;;;15.67;5.70;;;0.60;99.90;;;;;;5031321;28;20884;-72
2022/04/03 00:22:07;;;;;;;10.13;5.73;;;0.60;99.90;;;;;;5031399;28;20453;-73
2022/04/03 00:24:35;;;;;;;7.50;5.40;;;0.60;99.90;;;;;;5031002;28;20524;-73
2022/04/03 00:27:02;;;;;;;7.80;5.83;;;0.60;99.90;;;;;;5031053;28;20849;-74
2022/04/03 00:29:29;;;;;;;11.00;5.67;;;0.50;99.90;;;;;;5028727;28;20473;-73
2022/04/03 00:31:56;;;;;;;10.67;6.87;;;0.60;99.90;;;;;;5031160;28;20555;-73
2022/04/03 00:34:23;;;;;;;9.27;5.60;;;0.60;99.90;;;;;;5030697;28;20460;-73
2022/04/03 00:36:51;;;;;;;9.70;5.73;;;0.40;99.90;;;;;;5029944;28;20515;-73
2022/04/03 00:39:18;;;;;;;7.73;5.30;;;0.30;99.90;;;;;;5030064;28;20516;-73
2022/04/03 00:41:46;;;;;;;7.40;5.10;;;0.30;99.90;;;;;;5031142;28;20515;-73
2022/04/03 00:44:14;;;;;;;8.60;5.23;;;0.30;99.90;;;;;;5030451;28;20508;-74
2022/04/03 00:46:42;;;;;;;7.30;5.77;;;0.30;99.90;;;;;;5030888;28;20481;-73
2022/04/03 00:49:08;;;;;;;7.33;5.70;;;0.20;99.90;;;;;;5030977;28;21015;-73
2022/04/03 00:51:35;;;;;;;10.13;5.50;;;0.20;99.90;;;;;;5030592;28;20458;-74
2022/04/03 00:54:02;;;;;;;7.60;5.70;;;0.20;99.90;;;;;;5030593;28;20454;-73
2022/04/03 00:56:28;;;;;;;8.77;5.40;;;0.20;99.90;;;;;;5030165;28;20453;-73
2022/04/03 00:58:57;;;;;;;8.67;6.37;;;0.20;99.90;;;;;;5030342;28;21004;-72
2022/04/03 01:01:23;;;;;;;9.50;5.30;;;0.10;99.90;;;;;;5030660;28;20481;-73
2022/04/03 01:03:50;;;;;;;8.43;6.23;;;0.00;99.90;;;;;;5029416;28;20457;-73
2022/04/03 01:06:17;;;;;;;6.73;4.83;;;0.00;99.90;;;;;;5030176;28;20462;-72
2022/04/03 01:08:44;;;;;;;8.57;6.03;;;0.00;99.90;;;;;;5030115;28;20889;-73
2022/04/03 01:11:13;;;;;;;7.63;5.47;;;0.00;99.90;;;;;;5030691;28;20454;-73
2022/04/03 01:13:46;;;;;;;9.30;5.10;;;0.00;99.90;;;;;;5029369;28;20547;-73
2022/04/03 01:16:14;;;;;;;7.90;5.53;;;0.10;99.90;;;;;;5030667;28;20449;-72
2022/04/03 01:18:41;;;;;;;10.23;5.70;;;0.10;99.90;;;;;;5029706;28;20567;-73
2022/04/03 01:21:08;;;;;;;7.50;5.60;;;0.10;99.90;;;;;;5030107;28;20749;-73
2022/04/03 01:23:34;;;;;;;7.43;4.93;;;0.10;99.90;;;;;;5029918;28;20462;-72
2022/04/03 01:26:02;;;;;;;7.90;5.10;;;0.10;99.90;;;;;;5030768;28;21142;-72
2022/04/03 01:28:29;;;;;;;10.43;5.60;;;0.10;99.90;;;;;;5029286;28;20489;-73
2022/04/03 01:30:56;;;;;;;6.00;4.53;;;0.10;99.90;;;;;;5030218;28;20504;-73
2022/04/03 01:33:23;;;;;;;5.70;4.90;;;-0.10;99.90;;;;;;5029677;28;20461;-73
2022/04/03 01:35:50;;;;;;;10.03;5.30;;;-0.10;99.90;;;;;;5029858;28;20458;-72
2022/04/03 01:38:17;;;;;;;6.47;4.50;;;-0.20;99.90;;;;;;5029832;28;20469;-73
2022/04/03 01:40:43;;;;;;;6.13;5.00;;;-0.20;99.90;;;;;;5030010;28;20449;-72
2022/04/03 01:43:12;;;;;;;6.10;4.93;;;-0.20;99.90;;;;;;5029685;28;20457;-75
2022/04/03 01:45:40;;;;;;;4.63;4.23;;;-0.20;99.90;;;;;;5029573;28;20534;-72
2022/04/03 01:48:08;;;;;;;6.37;4.80;;;-0.20;99.90;;;;;;5029469;28;20941;-74
2022/04/03 01:50:35;;;;;;;6.57;5.13;;;-0.20;99.90;;;;;;5029222;28;20469;-73
2022/04/03 01:53:03;;;;;;;6.83;5.10;;;-0.20;99.90;;;;;;5029764;28;20485;-73
2022/04/03 01:55:30;;;;;;;8.57;5.30;;;-0.30;99.90;;;;;;5029314;28;20461;-73
2022/04/03 01:57:57;;;;;;;8.53;5.00;;;-0.30;99.90;;;;;;5029078;28;20523;-72
2022/04/03 02:00:26;;;;;;;10.50;5.20;;;-0.20;99.90;;;;;;5029433;28;20453;-74
2022/04/03 02:02:53;;;;;;;6.10;4.90;;;-0.40;99.90;;;;;;5029185;28;20610;-73
2022/04/03 02:05:21;;;;;;;6.00;4.80;;;-0.40;99.90;;;;;;5030036;28;21023;-73
2022/04/03 02:07:48;;;;;;;5.83;4.43;;;-0.40;99.90;;;;;;5026645;28;20496;-73
2022/04/03 02:10:14;;;;;;;7.40;5.13;;;-0.50;99.90;;;;;;5029746;28;20461;-73
2022/04/03 02:12:41;;;;;;;6.30;4.80;;;-0.50;99.90;;;;;;5028892;28;20476;-73
2022/04/03 02:15:11;;;;;;;5.63;4.27;;;-0.60;99.90;;;;;;5028522;28;20886;-74
2022/04/03 02:17:39;;;;;;;6.40;4.20;;;-0.60;99.90;;;;;;5029448;28;20473;-73
2022/04/03 02:20:08;;;;;;;6.70;4.77;;;-0.60;99.90;;;;;;5029813;28;20832;-73
2022/04/03 02:22:35;;;;;;;4.73;4.10;;;-0.60;99.90;;;;;;5028824;28;20453;-73
2022/04/03 02:25:03;;;;;;;5.17;3.93;;;-0.60;99.90;;;;;;5029616;28;20523;-73
2022/04/03 02:27:30;;;;;;;6.27;4.47;;;-0.60;99.90;;;;;;5028816;28;20843;-73
2022/04/03 02:29:57;;;;;;;7.80;4.50;;;-0.60;99.90;;;;;;5028525;28;20511;-73
2022/04/03 02:32:25;;;;;;;8.07;4.67;;;-0.70;99.90;;;;;;5029405;28;20457;-73
2022/04/03 02:34:53;;;;;;;9.93;4.97;;;-0.70;99.90;;;;;;5028370;28;20454;-73
2022/04/03 02:37:19;;;;;;;7.50;4.30;;;-0.70;99.90;;;;;;5029543;28;20461;-73
2022/04/03 02:39:46;;;;;;;4.57;4.13;;;-0.70;99.90;;;;;;5028581;28;20454;-73
2022/04/03 02:42:13;;;;;;;8.47;4.53;;;-0.80;99.90;;;;;;5029344;28;20457;-73
2022/04/03 02:44:39;;;;;;;5.73;4.57;;;-0.80;99.90;;;;;;5028580;28;20450;-73
2022/04/03 02:47:06;;;;;;;4.97;4.30;;;-0.80;99.90;;;;;;5029157;28;20485;-73
2022/04/03 02:49:33;;;;;;;5.97;4.80;;;-0.80;99.90;;;;;;5029053;28;20469;-73
2022/04/03 02:52:01;;;;;;;7.37;4.80;;;-0.80;99.90;;;;;;5025877;28;20449;-73
2022/04/03 02:54:28;;;;;;;6.53;4.53;;;-0.90;99.90;;;;;;5028550;28;20453;-73
2022/04/03 02:56:54;;;;;;;7.67;4.30;;;-0.90;99.90;;;;;;5029221;28;20500;-73
2022/04/03 02:59:21;;;;;;;6.30;4.07;;;-0.90;99.90;;;;;;5029251;28;20989;-73
2022/04/03 03:01:48;;;;;;;6.03;3.90;;;-1.00;99.90;;;;;;5030403;28;20511;-74
2022/04/03 03:04:15;;;;;;;7.07;4.53;;;-1.00;99.90;;;;;;5032632;28;20464;-73
2022/04/03 03:06:42;;;;;;;5.33;4.37;;;-0.90;99.90;;;;;;5032379;28;20467;-73
2022/04/03 03:09:10;;;;;;;4.90;3.47;;;-1.00;99.90;;;;;;5032372;28;20492;-73
2022/04/03 03:11:36;;;;;;;3.90;3.53;;;-1.00;99.90;;;;;;5032245;28;20449;-73
2022/04/03 03:14:03;;;;;;;5.53;4.07;;;-1.10;99.90;;;;;;5032024;28;20445;-73
2022/04/03 03:16:30;;;;;;;12.00;5.00;;;-1.10;99.90;;;;;;5032489;28;20461;-73
2022/04/03 03:18:56;;;;;;;8.73;4.30;;;-1.10;99.90;;;;;;5032222;28;20527;-73
2022/04/03 03:21:23;;;;;;;6.70;4.63;;;-1.20;99.90;;;;;;5031981;28;20902;-73
2022/04/03 03:23:50;;;;;;;5.30;4.10;;;-1.20;99.90;;;;;;5032309;28;20519;-73
2022/04/03 03:26:20;;;;;;;6.97;4.57;;;-1.20;99.90;;;;;;5032418;28;21007;-73
2022/04/03 03:28:47;;;;;;;4.20;3.80;;;-1.10;99.90;;;;;;5031840;28;21054;-73
2022/04/03 03:31:13;;;;;;;5.10;4.07;;;-1.20;99.90;;;;;;5032295;28;20976;-74
2022/04/03 03:33:40;;;;;;;3.73;3.43;;;-1.20;99.90;;;;;;5031734;28;20508;-73
2022/04/03 03:36:09;;;;;;;9.00;3.97;;;-1.20;99.90;;;;;;5032148;28;20950;-73
2022/04/03 03:38:36;;;;;;;5.23;3.90;;;-1.20;99.90;;;;;;5031158;28;20888;-73
2022/04/03 03:41:03;;;;;;;9.90;4.20;;;-1.30;99.90;;;;;;5032030;28;20510;-73
2022/04/03 03:43:31;;;;;;;4.17;3.30;;;-1.30;99.90;;;;;;5031826;28;20728;-73
2022/04/03 03:45:57;;;;;;;5.43;3.90;;;-1.30;99.90;;;;;;5031833;28;20449;-73
2022/04/03 03:48:24;;;;;;;7.77;3.83;;;-1.30;99.90;;;;;;5031362;28;20489;-73
2022/04/03 03:50:51;;;;;;;7.30;4.00;;;-1.30;99.90;;;;;;5030768;28;20464;-73
2022/04/03 03:53:18;;;;;;;6.40;3.90;;;-1.30;99.90;;;;;;5031570;28;20469;-73
2022/04/03 03:55:45;;;;;;;10.90;3.80;;;-1.30;99.90;;;;;;5031660;28;20605;-73
2022/04/03 03:58:12;;;;;;;3.67;3.10;;;-1.40;99.90;;;;;;5031519;28;20504;-73
2022/04/03 04:00:40;;;;;;;5.63;3.30;;;-1.40;99.90;;;;;;5031368;28;20446;-73
2022/04/03 04:03:07;;;;;;;4.13;3.47;;;-1.30;99.90;;;;;;5026316;28;20469;-73
2022/04/03 04:05:33;;;;;;;4.00;3.60;;;-1.30;99.90;;;;;;5031706;28;20472;-74
2022/04/03 04:08:00;;;;;;;7.57;3.30;;;-1.30;99.90;;;;;;5031461;28;20485;-73
2022/04/03 04:10:27;;;;;;;4.97;3.27;;;-1.20;99.90;;;;;;5030860;28;20791;-73
2022/04/03 04:12:53;;;;;;;9.70;4.20;;;-1.20;99.90;;;;;;5031327;28;20454;-73
2022/04/03 04:15:20;;;;;;;6.23;4.10;;;-1.20;99.90;;;;;;5030967;28;20454;-73
2022/04/03 04:17:49;;;;;;;5.03;3.30;;;-1.20;99.90;;;;;;5031441;28;20473;-73
2022/04/03 04:20:18;;;;;;;3.53;3.23;;;-1.30;99.90;;;;;;5030947;28;20445;-73
2022/04/03 04:22:45;;;;;;;5.93;3.60;;;-1.30;99.90;;;;;;5030522;28;20560;-72
2022/04/03 04:25:14;;;;;;;7.60;3.20;;;-1.30;99.90;;;;;;5031390;28;20515;-73
2022/04/03 04:27:41;;;;;;;3.03;2.83;;;-1.30;99.90;;;;;;5030026;28;20494;-73
2022/04/03 04:30:08;;;;;;;3.43;3.13;;;-1.30;99.90;;;;;;5031122;28;20533;-73
2022/04/03 04:32:36;;;;;;;2.80;2.60;;;-1.30;99.90;;;;;;5030244;28;20453;-75
2022/04/03 04:35:06;;;;;;;7.57;3.27;;;-1.30;99.90;;;;;;5031003;28;20541;-73
2022/04/03 04:37:33;;;;;;;3.30;3.00;;;-1.30;99.90;;;;;;5030509;28;20449;-73
2022/04/03 04:40:00;;;;;;;3.30;3.10;;;-1.30;99.90;;;;;;5029607;28;20453;-73
2022/04/03 04:42:27;;;;;;;4.27;3.40;;;-1.40;99.90;;;;;;5031028;28;20942;-73
2022/04/03 04:44:54;;;;;;;6.40;2.60;;;-1.30;99.90;;;;;;5030207;28;20453;-74
2022/04/03 04:47:21;;;;;;;3.13;2.83;;;-1.30;99.90;;;;;;5030860;28;20453;-73
2022/04/03 04:49:48;;;;;;;4.80;3.20;;;-1.40;99.90;;;;;;5030602;28;20449;-73
2022/04/03 04:52:16;;;;;;;5.97;2.80;;;-1.40;99.90;;;;;;5030888;28;20499;-73
2022/04/03 04:54:43;;;;;;;3.33;2.90;;;-1.40;99.90;;;;;;5029505;28;20476;-73
2022/04/03 04:57:10;;;;;;;3.80;3.47;;;-1.40;99.90;;;;;;5030955;28;20958;-73
2022/04/03 04:59:36;;;;;;;5.33;3.17;;;-1.50;99.90;;;;;;5029969;28;20469;-74
2022/04/03 05:02:05;;;;;;;3.33;2.73;;;-1.50;99.90;;;;;;5030179;28;20454;-74
2022/04/03 05:04:31;;;;;;;3.73;3.20;;;-1.50;99.90;;;;;;5030240;28;21019;-73
2022/04/03 05:06:58;;;;;;;5.00;3.23;;;-1.50;99.90;;;;;;5029855;28;20507;-74
2022/04/03 05:09:26;;;;;;;3.37;3.07;;;-1.50;99.90;;;;;;5030341;28;20515;-74
2022/04/03 05:11:54;;;;;;;4.63;3.30;;;-1.60;99.90;;;;;;5030025;28;20450;-74
2022/04/03 05:14:21;;;;;;;8.60;3.40;;;-1.60;99.90;;;;;;5030208;28;20453;-74
2022/04/03 05:16:47;;;;;;;4.00;3.00;;;-1.50;99.90;;;;;;5029580;28;20451;-74
2022/04/03 05:19:15;;;;;;;4.80;2.80;;;-1.50;99.90;;;;;;5029586;28;20847;-74
2022/04/03 05:21:42;;;;;;;5.07;3.13;;;-1.50;99.90;;;;;;5030295;28;20970;-74
2022/04/03 05:24:09;;;;;;;4.23;3.10;;;-1.50;99.90;;;;;;5029527;28;20454;-74
2022/04/03 05:26:37;;;;;;;3.40;3.10;;;-1.50;99.90;;;;;;5030143;28;20450;-74
2022/04/03 05:29:04;;;;;;;9.70;3.83;;;-1.50;99.90;;;;;;5028985;28;20886;-73
2022/04/03 05:31:31;;;;;;;5.20;3.50;;;-1.50;99.90;;;;;;5029819;28;20462;-73
2022/04/03 05:33:58;;;;;;;4.50;3.70;;;-1.40;99.90;;;;;;5029228;28;20464;-73
2022/04/03 05:36:24;;;;;;;4.30;3.00;;;-1.40;99.90;;;;;;5029871;28;21005;-74
2022/04/03 05:38:51;;;;;;;4.03;3.33;;;-1.30;99.90;;;;;;5030010;28;20465;-73
2022/04/03 05:41:17;;;;;;;3.70;2.63;;;-1.00;99.90;;;;;;5030180;28;20461;-73
2022/04/03 05:43:45;;;;;;;7.30;2.73;;;-0.70;99.90;;;;;;5029277;28;20507;-73
2022/04/03 05:46:12;;;;;;;4.70;3.17;;;-0.30;99.90;;;;;;5029492;28;20461;-73
2022/04/03 05:48:39;;;;;;;3.37;3.07;;;0.00;99.90;;;;;;5029125;28;20997;-72
2022/04/03 05:51:05;;;;;;;4.53;3.10;;;0.30;99.90;;;;;;5029536;28;20500;-73
2022/04/03 05:53:32;;;;;;;11.60;3.00;;;0.50;99.90;;;;;;5029585;28;21015;-73
2022/04/03 05:55:59;;;;;;;3.90;3.20;;;0.60;99.90;;;;;;5029306;28;20441;-72
2022/04/03 05:58:25;;;;;;;3.40;2.87;;;0.80;99.90;;;;;;5029063;28;20882;-72
2022/04/03 06:00:54;;;;;;;6.23;2.70;;;1.10;99.90;;;;;;5029561;28;20507;-73
2022/04/03 06:03:20;;;;;;;3.30;2.80;;;1.50;99.90;;;;;;5029208;28;20540;-72
2022/04/03 06:05:47;;;;;;;7.30;3.30;;;1.80;99.90;;;;;;5025956;28;20494;-73
2022/04/03 06:08:14;;;;;;;5.10;2.83;;;2.10;99.90;;;;;;5028756;28;20512;-73
2022/04/03 06:10:40;;;;;;;3.90;2.60;;;2.50;99.90;;;;;;5028778;28;20471;-72
2022/04/03 06:13:08;;;;;;;2.83;2.60;;;2.90;99.90;;;;;;5026243;28;20503;-72
2022/04/03 06:15:37;;;;;;;3.77;2.60;;;3.10;99.90;;;;;;5028186;28;20449;-73
2022/04/03 06:18:07;;;;;;;3.53;2.60;;;3.30;99.90;;;;;;5029443;28;20496;-73
2022/04/03 06:20:34;;;;;;;5.50;2.77;;;3.50;99.90;;;;;;5029460;28;20449;-72
2022/04/03 06:23:02;;;;;;;3.03;2.37;;;3.60;99.90;;;;;;5029377;28;20493;-72
2022/04/03 06:25:30;;;;;;;2.90;2.60;;;3.70;99.90;;;;;;5029634;28;20544;-72
2022/04/03 06:27:58;;;;;;;3.77;3.10;;;3.90;99.90;;;;;;5028697;28;20519;-75
2022/04/03 06:30:25;;;;;;;3.00;2.70;;;4.10;99.90;;;;;;5028472;28;20457;-75
2022/04/03 06:32:51;;;;;;;2.90;2.60;;;4.20;99.90;;;;;;5029416;28;20507;-75
2022/04/03 06:35:19;;;;;;;4.23;3.10;;;4.40;99.90;;;;;;5029533;28;20843;-75
2022/04/03 06:37:46;;;;;;;4.60;2.67;;;4.80;99.90;;;;;;5031910;28;20473;-75
2022/04/03 06:40:13;;;;;;;4.83;3.27;;;5.10;99.90;;;;;;5033076;28;20941;-74
2022/04/03 06:42:41;;;;;;;5.13;3.10;;;5.30;99.90;;;;;;5032877;28;20515;-75
2022/04/03 06:45:08;;;;;;;3.13;2.80;;;5.40;99.90;;;;;;5033373;28;20449;-75
2022/04/03 06:47:35;;;;;;;2.60;2.40;;;5.50;99.90;;;;;;5032498;28;20487;-75
2022/04/03 06:50:03;;;;;;;3.23;2.57;;;5.70;99.90;;;;;;5026463;28;20497;-75
2022/04/03 06:52:31;;;;;;;6.07;2.83;;;5.60;99.90;;;;;;5033020;28;20495;-74
2022/04/03 06:54:57;;;;;;;3.37;2.77;;;5.90;99.90;;;;;;5032238;28;20496;-75
2022/04/03 06:57:24;;;;;;;3.90;2.60;;;6.00;99.90;;;;;;5032153;28;20511;-74
2022/04/03 06:59:50;;;;;;;3.87;3.47;;;6.10;99.90;;;;;;5032744;28;20257;-75
2022/04/03 07:02:17;;;;;;;3.73;3.20;;;6.20;99.90;;;;;;5032461;28;20493;-75
2022/04/03 07:04:45;;;;;;;3.20;2.90;;;6.40;99.90;;;;;;5032480;28;20457;-75
2022/04/03 07:07:11;;;;;;;3.70;3.20;;;6.40;99.90;;;;;;5032762;28;20453;-75
2022/04/03 07:09:43;;;;;;;4.13;3.30;;;6.60;99.90;;;;;;5032147;28;20542;-74
2022/04/03 07:12:11;;;;;;;4.05;3.00;;;6.60;99.90;;;;;;5032577;28;20457;-75
2022/04/03 07:14:38;;;;;;;3.57;3.10;;;6.70;99.90;;;;;;5032360;28;20201;-74
2022/04/03 07:17:05;;;;;;;3.07;2.87;;;6.60;99.90;;;;;;5033366;28;20456;-74
2022/04/03 07:19:31;;;;;;;3.13;2.87;;;6.40;99.90;;;;;;5032914;28;20472;-74
2022/04/03 07:21:58;;;;;;;3.40;3.10;;;6.30;99.90;;;;;;5032563;28;20510;-74
2022/04/03 07:24:25;;;;;;;7.50;3.70;;;6.10;99.90;;;;;;5032696;28;20453;-74
2022/04/03 07:26:54;;;;;;;5.63;3.47;;;6.10;99.90;;;;;;5025569;28;20965;-74
2022/04/03 07:29:21;;;;;;;3.40;3.03;;;6.30;99.90;;;;;;5032811;28;20495;-74
2022/04/03 07:31:48;;;;;;;5.50;3.40;;;6.50;99.90;;;;;;5032711;28;20457;-75
2022/04/03 07:34:14;;;;;;;4.00;3.23;;;6.50;99.90;;;;;;5032327;28;20511;-75
2022/04/03 07:36:41;;;;;;;6.63;3.20;;;6.60;99.90;;;;;;5033203;28;20457;-73
2022/04/03 07:39:09;;;;;;;6.67;3.50;;;6.80;99.90;;;;;;5032328;28;20989;-74
2022/04/03 07:41:36;;;;;;;4.00;3.70;;;6.80;99.90;;;;;;5032852;28;20482;-74
2022/04/03 07:44:05;;;;;;;6.73;3.50;;;6.90;99.90;;;;;;5032401;28;20461;-74
2022/04/03 07:46:32;;;;;;;4.07;3.67;;;6.90;99.90;;;;;;5032935;28;20461;-73
2022/04/03 07:48:58;;;;;;;7.30;3.50;;;6.90;99.90;;;;;;5031036;28;20569;-74
2022/04/03 07:51:27;;;;;;;5.50;3.40;;;6.70;99.90;;;;;;5032551;28;20871;-74
2022/04/03 07:53:54;;;;;;;7.17;3.57;;;6.60;99.90;;;;;;5031184;28;20540;-73
2022/04/03 07:56:20;;;;;;;5.10;3.43;;;6.30;99.90;;;;;;5031508;28;20537;-73
2022/04/03 07:58:47;;;;;;;6.77;3.90;;;6.20;99.90;;;;;;5030650;28;21083;-74
2022/04/03 08:01:15;;;;;;;4.90;2.90;;;6.20;99.90;;;;;;5031360;28;20449;-72
2022/04/03 08:03:41;;;;;;;3.20;2.90;;;6.40;99.90;;;;;;5030982;28;20461;-74
2022/04/03 08:06:09;;;;;;;3.17;2.97;;;6.50;99.90;;;;;;5031038;28;20509;-74
2022/04/03 08:08:36;;;;;;;4.80;3.27;;;6.60;99.90;;;;;;5030214;28;21017;-74
2022/04/03 08:11:03;;;;;;;3.80;3.10;;;6.60;99.90;;;;;;5030817;28;20630;-73
2022/04/03 08:13:29;;;;;;;4.20;2.90;;;6.80;99.90;;;;;;5030482;28;20709;-73
2022/04/03 08:15:56;;;;;;;3.47;3.03;;;7.00;99.90;;;;;;5031186;28;20449;-72
2022/04/03 08:18:25;;;;;;;4.00;2.90;;;7.00;99.90;;;;;;5030455;28;20469;-72
2022/04/03 08:20:52;;;;;;;3.50;3.20;;;7.20;99.90;;;;;;5030424;28;20442;-73
2022/04/03 08:23:19;;;;;;;4.17;3.20;;;7.30;99.90;;;;;;5030460;28;20536;-73
2022/04/03 08:25:46;;;;;;;3.70;3.00;;;7.50;99.90;;;;;;5030886;28;20449;-75
2022/04/03 08:28:14;;;;;;;4.63;3.87;;;7.70;99.90;;;;;;5030240;28;20457;-71
2022/04/03 08:30:40;;;;;;;3.73;3.07;;;8.00;99.90;;;;;;5028434;28;20484;-74
2022/04/03 08:33:09;;;;;;;4.63;3.17;;;8.00;99.90;;;;;;5029426;28;20515;-73
2022/04/03 08:35:38;;;;;;;5.17;3.30;;;7.90;99.90;;;;;;5027794;28;20515;-73
2022/04/03 08:38:06;;;;;;;6.13;3.63;;;8.00;99.90;;;;;;5027364;28;20473;-73
2022/04/03 08:40:33;;;;;;;3.80;3.20;;;7.80;99.90;;;;;;5031236;28;20532;-73
2022/04/03 08:43:01;;;;;;;3.80;3.20;;;7.60;99.90;;;;;;5029313;28;20879;-72
2022/04/03 08:45:29;;;;;;;4.03;3.23;;;7.10;99.90;;;;;;5030513;28;20462;-73
2022/04/03 08:47:58;;;;;;;4.60;2.93;;;6.70;99.90;;;;;;5030274;28;20495;-73
2022/04/03 08:50:26;;;;;;;5.27;4.00;;;6.70;99.90;;;;;;5030870;28;20535;-73
2022/04/03 08:52:57;;;;;;;4.43;3.00;;;6.60;99.30;;;;;;5029466;28;20826;-73
2022/04/03 08:55:24;;;;;;;3.40;3.13;;;6.50;99.90;;;;;;5030389;28;20487;-73
2022/04/03 08:57:51;;;;;;;3.20;2.60;;;6.50;99.90;;;;;;5029462;28;20473;-73
2022/04/03 09:00:18;;;;;;;2.80;2.60;;;6.50;99.90;;;;;;5029802;28;21015;-74
2022/04/03 09:02:46;;;;;;;2.90;2.70;;;6.60;99.90;;;;;;5027578;28;20460;-72
2022/04/03 09:05:14;;;;;;;4.10;3.20;;;6.70;99.90;;;;;;5022513;28;20869;-73
2022/04/03 09:07:41;;;;;;;3.30;3.00;;;6.90;99.90;;;;;;5029221;28;20564;-72
2022/04/03 09:10:11;;;;;;;5.83;3.10;;;7.30;99.90;;;;;;5028799;28;20554;-74
2022/04/03 09:12:45;;;;;;;6.10;3.70;;;7.40;99.10;;;;;;5025203;28;20458;-74
2022/04/03 09:15:14;;;;;;;4.00;3.33;;;7.50;98.60;;;;;;5028617;28;20464;-74
2022/04/03 09:17:44;;;;;;;3.40;2.70;;;7.50;98.60;;;;;;5029456;28;20535;-74
2022/04/03 09:20:13;;;;;;;3.80;3.40;;;7.30;97.30;;;;;;5028650;28;21076;-75
2022/04/03 09:22:41;;;;;;;4.23;3.20;;;7.60;97.40;;;;;;5029843;28;20535;-75
2022/04/03 09:25:11;;;;;;;3.80;3.30;;;8.10;96.90;;;;;;5027728;28;20515;-73
2022/04/03 09:27:48;;;;;;;3.33;3.03;;;8.60;97.00;;;;;;5028340;28;20836;-74
2022/04/03 09:30:15;;;;;;;3.60;3.27;;;9.10;96.20;;;;;;5028151;28;21122;-74
2022/04/03 09:32:47;;;;;;;3.53;3.00;;;9.60;94.00;;;;;;5029441;28;20441;-74
2022/04/03 09:35:14;;;;;;;4.40;3.27;;;9.80;93.00;;;;;;5028246;28;20456;-74
2022/04/03 09:38:01;;;;;;;3.97;3.63;;;10.10;91.60;;;;;;5029093;28;20531;-75
2022/04/03 09:40:31;;;;;;;3.20;2.97;;;10.10;88.90;;;;;;5028511;28;20480;-75
2022/04/03 09:43:17;;;;;;;4.17;3.40;;;10.00;89.80;;;;;;5028828;28;20457;-75
2022/04/03 09:45:48;;;;;;;4.17;3.73;;;10.10;91.40;;;;;;5026914;28;20524;-75
2022/04/03 09:48:19;;;;;;;3.87;3.57;;;10.00;89.10;;;;;;5028549;28;20474;-75
2022/04/03 09:51:02;;;;;;;4.00;3.60;;;9.40;87.90;;;;;;5028250;28;20567;-75
2022/04/03 09:53:30;;;;;;;3.60;3.40;;;9.60;90.20;;;;;;5027935;28;20457;-75
2022/04/03 09:55:58;;;;;;;3.93;3.63;;;9.80;86.00;;;;;;5026208;28;20449;-75
2022/04/03 09:58:25;;;;;;;3.57;3.27;;;9.90;81.80;;;;;;5028915;28;20469;-75
2022/04/03 10:00:51;;;;;;;3.23;3.03;;;10.10;87.20;;;;;;5028146;28;20461;-75
2022/04/03 10:03:19;;;;;;;3.40;3.20;;;10.50;88.20;;;;;;5025866;28;20457;-75
2022/04/03 10:05:46;;;;;;;4.20;3.20;;;10.60;87.20;;;;;;5028465;28;20544;-74
2022/04/03 10:08:14;;;;;;;3.93;3.63;;;10.60;87.60;;;;;;5028509;28;20568;-75
2022/04/03 10:10:40;;;;;;;5.23;3.40;;;10.50;84.50;;;;;;5030667;28;20481;-75
2022/04/03 10:13:10;;;;;;;3.53;3.20;;;10.40;87.00;;;;;;5034655;28;20458;-73
2022/04/03 10:15:37;;;;;;;2.90;2.70;;;10.40;85.20;;;;;;5034604;28;20456;-73
2022/04/03 10:18:05;;;;;;;3.63;3.33;;;10.70;81.00;;;;;;5034934;28;21011;-73
2022/04/03 10:20:34;;;;;;;3.33;3.13;;;10.90;82.20;;;;;;5029908;28;20929;-73
2022/04/03 10:23:10;;;;;;;3.47;3.17;;;10.60;79.00;;;;;;5035041;28;20456;-74
2022/04/03 10:25:41;;;;;;;3.83;3.30;;;10.40;80.00;;;;;;5029638;28;20461;-74
2022/04/03 10:28:10;;;;;;;3.77;3.47;;;10.40;80.40;;;;;;5033944;28;20475;-74
2022/04/03 10:30:38;;;;;;;3.40;3.20;;;10.50;80.90;;;;;;5032984;28;20539;-74
2022/04/03 10:33:06;;;;;;;3.83;3.50;;;10.40;79.80;;;;;;5033791;28;20450;-73
2022/04/03 10:35:32;;;;;;;4.03;3.00;;;10.50;78.90;;;;;;5028666;28;20520;-74
2022/04/03 10:38:02;;;;;;;3.53;3.23;;;11.10;84.00;;;;;;5034463;28;20469;-73
2022/04/03 10:40:31;;;;;;;5.30;2.93;;;11.10;79.80;;;;;;5034871;28;20461;-74
2022/04/03 10:43:02;;;;;;;2.93;2.63;;;10.70;75.90;;;;;;5034673;28;20449;-74
2022/04/03 10:45:30;;;;;;;3.00;2.80;;;10.80;74.70;;;;;;5033706;28;20461;-74
2022/04/03 10:48:24;;;;;;;3.93;3.47;;;10.50;76.30;;;;;;5037355;28;20473;-73
2022/04/03 10:51:01;;;;;;;3.03;2.83;;;10.30;81.30;;;;;;5030439;28;20473;-74
2022/04/03 10:53:30;;;;;;;3.57;2.87;;;10.60;76.70;;;;;;5033384;28;20456;-73
2022/04/03 10:55:58;;;;;;;2.97;2.67;;;10.90;79.60;;;;;;5034883;28;20457;-75
2022/04/03 10:58:25;;;;;;;4.03;2.30;;;10.90;77.90;;;;;;5032767;28;20526;-73
2022/04/03 11:00:53;;;;;;;3.23;3.03;;;11.30;77.80;;;;;;5034800;28;20252;-73
2022/04/03 11:03:37;;;;;;;2.93;2.70;;;11.50;80.60;;;;;;5034568;28;20484;-76
2022/04/03 11:06:24;;;;;;;3.03;2.70;;;11.10;76.80;;;;;;5035196;28;20449;-74
2022/04/03 11:08:59;;;;;;;3.43;2.80;;;10.40;74.50;;;;;;5036011;28;20480;-74
2022/04/03 11:11:39;;;;;;;3.27;3.07;;;10.70;71.20;;;;;;5034805;28;20480;-73
2022/04/03 11:14:07;;;;;;;4.50;2.87;;;10.90;79.30;;;;;;5035262;28;20507;-74
2022/04/03 11:16:54;;;;;;;4.27;3.00;;;11.50;77.70;;;;;;5035063;28;20511;-74
2022/04/03 11:19:40;;;;;;;3.63;3.17;;;11.70;75.00;;;;;;5035545;28;21058;-74
2022/04/03 11:22:09;;;;;;;4.70;3.20;;;11.80;75.80;;;;;;5033806;28;20857;-73
2022/04/03 11:24:37;;;;;;;3.83;3.47;;;12.00;75.40;;;;;;5031173;28;20445;-73
2022/04/03 11:27:05;;;;;;;3.97;2.73;;;11.80;71.40;;;;;;5032193;28;20512;-74
2022/04/03 11:29:32;;;;;;;5.40;2.90;;;11.50;75.00;;;;;;5031627;28;20518;-73
2022/04/03 11:32:03;;;;;;;4.93;3.17;;;11.60;74.60;;;;;;5031942;28;20872;-73
2022/04/03 11:34:31;;;;;;;4.63;3.03;;;11.70;74.00;;;;;;5032048;28;20457;-74
2022/04/03 11:36:58;;;;;;;4.10;3.30;;;11.80;79.30;;;;;;5032525;28;20532;-74
2022/04/03 11:39:32;;;;;;;3.50;2.80;;;12.20;76.50;;;;;;5031452;28;20473;-73
2022/04/03 11:42:01;;;;;;;3.00;2.80;;;12.30;74.60;;;;;;5031988;28;20445;-74
2022/04/03 11:44:29;;;;;;;3.10;2.80;;;12.40;75.10;;;;;;5030904;28;20937;-74
2022/04/03 11:46:55;;;;;;;3.10;2.90;;;12.60;72.20;;;;;;5032333;28;20477;-74
2022/04/03 11:49:25;;;;;;;3.20;2.90;;;12.70;74.20;;;;;;5031168;28;20557;-74
2022/04/03 11:51:55;;;;;;;2.93;2.63;;;12.70;72.30;;;;;;5031398;28;20481;-74
2022/04/03 11:54:21;;;;;;;8.80;3.27;;;12.60;71.90;;;;;;5031314;28;20489;-74
2022/04/03 11:56:48;;;;;;;3.40;3.10;;;12.70;73.10;;;;;;5031352;28;20457;-74
2022/04/03 11:59:15;;;;;;;3.97;3.03;;;13.10;74.20;;;;;;5031568;28;20547;-74
2022/04/03 12:01:49;;;;;;;3.67;3.17;;;13.00;72.00;;;;;;5032272;28;20442;-74
2022/04/03 12:04:15;;;;;;;4.70;2.67;;;13.00;70.40;;;;;;5031253;28;20595;-74
2022/04/03 12:06:45;;;;;;;3.43;2.90;;;12.90;75.50;;;;;;5031460;28;20452;-74
2022/04/03 12:09:13;;;;;;;2.97;2.77;;;13.30;74.20;;;;;;5028001;28;20465;-74
2022/04/03 12:11:41;;;;;;;3.00;2.80;;;13.30;72.30;;;;;;5026473;28;20571;-74
2022/04/03 12:14:08;;;;;;;3.10;2.80;;;13.30;67.10;;;;;;5031507;28;20526;-74
2022/04/03 12:16:37;;;;;;;2.93;2.70;;;12.90;70.10;;;;;;5031296;28;20457;-74
2022/04/03 12:19:06;;;;;;;3.03;2.77;;;12.80;69.00;;;;;;5030715;28;20473;-74
2022/04/03 12:21:45;;;;;;;4.63;2.70;;;12.70;73.50;;;;;;5031338;28;20453;-73
2022/04/03 12:24:14;;;;;;;3.00;2.80;;;12.90;73.90;;;;;;5031011;28;21039;-73
2022/04/03 12:26:45;;;;;;;2.57;2.37;;;12.80;70.20;;;;;;5028912;28;20507;-73
2022/04/03 12:29:12;;;;;;;3.10;2.90;;;12.20;69.20;;;;;;5030246;28;20650;-74
2022/04/03 12:31:40;;;;;;;3.20;2.90;;;12.20;71.50;;;;;;5030674;28;20539;-74
2022/04/03 12:34:08;;;;;;;3.13;2.80;;;12.10;70.50;;;;;;5030013;28;20872;-74
2022/04/03 12:36:39;;;;;;;2.83;2.40;;;12.10;70.50;;;;;;5030958;28;21033;-74
2022/04/03 12:39:28;;;;;;;3.17;2.83;;;12.30;72.10;;;;;;5030272;28;20481;-74
2022/04/03 12:41:55;;;;;;;2.90;2.70;;;12.70;71.30;;;;;;5028556;28;20869;-73
2022/04/03 12:44:22;;;;;;;2.90;2.70;;;13.10;72.40;;;;;;5030427;28;20457;-75
2022/04/03 12:46:49;;;;;;;5.73;2.73;;;13.50;71.90;;;;;;5029522;28;20450;-74
2022/04/03 12:49:17;;;;;;;8.33;2.80;;;13.90;69.10;;;;;;5030026;28;20473;-74
2022/04/03 12:51:45;;;;;;;3.10;2.70;;;14.20;66.00;;;;;;5030395;28;20531;-73
2022/04/03 12:54:13;;;;;;;3.53;3.23;;;14.40;67.80;;;;;;5027939;28;20503;-74